createdAt,value
2022-09-05T00:05:51.053Z,63.67
2022-09-05T00:11:56.648Z,64.21
2022-09-05T00:18:24.745Z,63.88
2022-09-05T00:24:30.375Z,63.77
2022-09-05T00:31:07.140Z,63.93
2022-09-05T00:36:43.175Z,63.95
2022-09-05T00:42:22.931Z,63.95
2022-09-05T00:48:13.828Z,63.79
2022-09-05T00:54:26.360Z,63.89
2022-09-05T01:00:22.807Z,64.11
2022-09-05T01:06:17.748Z,64.02
2022-09-05T01:12:19.716Z,64.10
2022-09-05T01:18:44.136Z,64.16
2022-09-05T01:25:04.901Z,64.27
2022-09-05T01:31:03.014Z,64.33
2022-09-05T01:37:07.304Z,64.68
2022-09-05T01:43:30.131Z,64.72
2022-09-05T01:49:33.797Z,64.88
2022-09-05T01:55:32.285Z,65.00
2022-09-05T02:01:33.197Z,65.14
2022-09-05T02:07:30.627Z,64.68
2022-09-05T02:13:21.096Z,65.07
2022-09-05T02:19:09.041Z,64.31
2022-09-05T02:24:58.539Z,64.01
2022-09-05T02:31:23.860Z,64.22
2022-09-05T02:37:32.377Z,64.28
2022-09-05T02:45:12.203Z,64.46
2022-09-05T02:53:45.576Z,64.42
2022-09-05T02:57:38.339Z,64.77
2022-09-05T03:02:25.282Z,64.46
2022-09-05T03:08:41.047Z,64.24
2022-09-05T03:14:55.326Z,64.45
2022-09-05T03:20:37.857Z,64.75
2022-09-05T03:26:23.298Z,64.63
2022-09-05T03:32:14.544Z,64.54
2022-09-05T03:38:36.237Z,64.63
2022-09-05T03:44:34.782Z,64.45
2022-09-05T03:53:45.344Z,64.48
2022-09-05T03:57:32.444Z,64.66
2022-09-05T04:08:20.389Z,64.40
2022-09-05T04:09:50.557Z,64.29
2022-09-05T04:15:47.728Z,64.51
2022-09-05T04:21:36.855Z,64.47
2022-09-05T04:27:28.546Z,64.75
2022-09-05T04:33:35.903Z,64.79
2022-09-05T04:39:19.666Z,64.64
2022-09-05T04:45:03.566Z,64.79
2022-09-05T04:51:21.385Z,64.75
2022-09-05T04:57:14.745Z,64.89
2022-09-05T05:06:14.076Z,64.98
2022-09-05T05:09:15.627Z,65.65
2022-09-05T05:18:13.272Z,65.92
2022-09-05T05:21:09.226Z,66.36
2022-09-05T05:26:57.573Z,66.58
2022-09-05T05:32:45.854Z,66.70
2022-09-05T05:38:38.454Z,66.98
2022-09-05T05:44:35.107Z,67.38
2022-09-05T05:50:43.201Z,67.16
2022-09-05T05:56:56.725Z,67.34
2022-09-05T06:02:39.202Z,67.52
2022-09-05T06:12:53.616Z,67.84
2022-09-05T06:15:16.374Z,67.92
2022-09-05T06:22:10.818Z,67.94
2022-09-05T06:27:43.849Z,68.04
2022-09-05T06:34:33.073Z,68.32
2022-09-05T06:40:18.146Z,68.76
2022-09-05T06:46:03.579Z,68.57
2022-09-05T06:51:46.408Z,68.64
2022-09-05T06:57:35.337Z,69.01
2022-09-05T07:03:33.292Z,69.21
2022-09-05T07:09:28.785Z,69.53
2022-09-05T07:15:40.428Z,69.25
2022-09-05T07:21:35.142Z,69.70
2022-09-05T07:27:49.880Z,69.48
2022-09-05T07:33:39.137Z,69.67
2022-09-05T07:39:29.194Z,69.77
2022-09-05T07:45:29.697Z,69.83
2022-09-05T07:56:47.726Z,69.97
2022-09-05T07:57:43.612Z,69.85
2022-09-05T08:03:31.197Z,69.85
2022-09-05T08:10:08.648Z,69.81
2022-09-05T08:15:27.997Z,70.02
2022-09-05T08:21:42.365Z,70.14
2022-09-05T08:27:26.126Z,69.98
2022-09-05T08:33:11.958Z,70.27
2022-09-05T08:38:52.035Z,70.13
2022-09-05T08:46:42.800Z,69.90
2022-09-05T08:51:04.032Z,70.09
2022-09-05T08:56:55.374Z,70.32
2022-09-05T09:02:57.244Z,70.02
2022-09-05T09:09:05.787Z,69.45
2022-09-05T09:15:00.698Z,69.87
2022-09-05T09:20:54.556Z,70.24
2022-09-05T09:26:50.096Z,70.03
2022-09-05T09:32:30.567Z,70.13
2022-09-05T09:38:29.252Z,69.86
2022-09-05T09:44:50.034Z,69.61
2022-09-05T09:50:41.875Z,69.91
2022-09-05T09:56:40.098Z,70.16
2022-09-05T10:06:52.502Z,69.74
2022-09-05T10:10:58.388Z,69.40
2022-09-05T10:15:38.177Z,69.54
2022-09-05T10:28:14.817Z,69.26
2022-09-05T10:35:13.751Z,68.73
2022-09-05T10:40:04.466Z,68.75
2022-09-05T10:46:06.053Z,68.34
2022-09-05T10:51:52.502Z,68.58
2022-09-05T10:57:40.873Z,67.79
2022-09-05T11:03:30.213Z,67.89
2022-09-05T11:09:16.463Z,67.72
2022-09-05T11:14:58.741Z,67.20
2022-09-05T11:20:53.139Z,67.28
2022-09-05T11:26:42.430Z,66.96
2022-09-05T11:39:14.826Z,66.77
2022-09-05T11:39:59.172Z,66.96
2022-09-05T11:45:34.280Z,66.72
2022-09-05T11:51:43.022Z,66.54
2022-09-05T11:57:33.449Z,66.47
2022-09-05T12:03:57.222Z,66.14
2022-09-05T12:09:34.294Z,65.87
2022-09-05T12:15:34.446Z,65.39
2022-09-05T12:21:22.971Z,65.17
2022-09-05T12:27:40.234Z,64.91
2022-09-05T12:36:01.618Z,64.62
2022-09-05T12:40:56.665Z,64.42
2022-09-05T12:45:37.309Z,64.71
2022-09-05T12:51:45.351Z,64.33
2022-09-05T13:02:41.854Z,63.93
2022-09-05T13:03:37.833Z,63.70
2022-09-05T13:09:51.910Z,63.66
2022-09-05T13:15:41.894Z,63.39
2022-09-05T13:21:27.180Z,62.95
2022-09-05T13:27:17.275Z,62.58
2022-09-05T13:38:04.621Z,62.42
2022-09-05T13:39:12.483Z,62.44
2022-09-05T13:44:56.503Z,62.58
2022-09-05T13:50:42.760Z,62.48
2022-09-05T13:56:29.124Z,62.67
2022-09-05T14:02:27.822Z,62.65
2022-09-05T14:08:33.651Z,61.85
2022-09-05T14:21:17.092Z,61.41
2022-09-05T14:27:00.388Z,61.69
2022-09-05T14:37:36.374Z,61.64
2022-09-05T14:38:22.009Z,61.82
2022-09-05T14:44:01.566Z,61.98
2022-09-05T14:49:40.095Z,61.36
2022-09-05T15:02:53.353Z,61.18
2022-09-05T15:06:40.588Z,61.14
2022-09-05T15:12:33.030Z,61.01
2022-09-05T15:18:12.273Z,60.66
2022-09-05T15:23:35.349Z,60.73
2022-09-05T15:29:13.916Z,61.02
2022-09-05T15:34:34.990Z,60.86
2022-09-05T15:40:23.191Z,60.86
2022-09-05T15:45:46.998Z,60.89
2022-09-05T15:51:18.491Z,61.00
2022-09-05T15:56:48.836Z,61.14
2022-09-05T16:02:23.312Z,60.94
2022-09-05T16:10:35.756Z,60.88
2022-09-05T16:13:33.915Z,60.86
2022-09-05T16:23:20.551Z,61.16
2022-09-05T16:25:03.744Z,61.14
2022-09-05T16:30:30.178Z,60.93
2022-09-05T16:36:16.537Z,60.98
2022-09-05T16:41:54.005Z,61.41
2022-09-05T16:47:37.525Z,61.39
2022-09-05T16:53:26.071Z,61.31
2022-09-05T16:58:56.538Z,61.90
2022-09-05T17:04:41.775Z,62.14
2022-09-05T17:10:21.405Z,62.03
2022-09-05T17:15:52.330Z,62.48
2022-09-05T17:21:36.565Z,62.29
2022-09-05T17:29:34.134Z,62.21
2022-09-05T17:32:59.842Z,62.00
2022-09-05T17:38:58.592Z,62.01
2022-09-05T17:44:29.497Z,61.89
2022-09-05T17:50:10.165Z,62.33
2022-09-05T17:55:43.278Z,62.09
2022-09-05T18:01:27.066Z,62.47
2022-09-05T18:06:59.868Z,62.49
2022-09-05T18:13:11.798Z,62.53
2022-09-05T18:19:27.961Z,62.76
2022-09-05T18:24:33.414Z,62.35
2022-09-05T18:30:25.098Z,62.24
2022-09-05T18:35:53.734Z,62.04
2022-09-05T18:41:19.318Z,62.41
2022-09-05T18:47:32.133Z,62.44
2022-09-05T18:53:09.106Z,61.97
2022-09-05T18:58:36.696Z,62.32
2022-09-05T19:04:02.043Z,62.08
2022-09-05T19:09:32.109Z,62.26
2022-09-05T19:15:01.415Z,62.15
2022-09-05T19:21:04.521Z,62.21
2022-09-05T19:26:28.959Z,62.25
2022-09-05T19:37:14.798Z,62.37
2022-09-05T19:37:48.754Z,62.60
2022-09-05T19:47:42.044Z,62.26
2022-09-05T19:49:12.074Z,62.44
2022-09-05T19:54:38.174Z,62.58
2022-09-05T20:00:02.956Z,63.43
2022-09-05T20:05:39.205Z,62.92
2022-09-05T20:11:02.044Z,62.86
2022-09-05T20:16:31.111Z,62.81
2022-09-05T20:21:56.785Z,62.79
2022-09-05T20:27:18.253Z,62.96
2022-09-05T20:32:42.395Z,63.01
2022-09-05T20:43:19.345Z,63.04
2022-09-05T20:44:01.515Z,62.94
2022-09-05T20:54:06.986Z,62.94
2022-09-05T20:55:40.160Z,63.25
2022-09-05T21:01:21.790Z,63.17
2022-09-05T21:06:44.522Z,63.26
2022-09-05T21:12:09.183Z,63.27
2022-09-05T21:17:41.545Z,62.78
2022-09-05T21:23:20.238Z,62.98
2022-09-05T21:29:08.137Z,63.10
2022-09-05T21:34:33.134Z,63.51
2022-09-05T21:40:00.229Z,63.52
2022-09-05T21:47:38.025Z,63.71
2022-09-05T21:51:13.034Z,63.88
2022-09-05T21:59:30.624Z,63.92
2022-09-05T22:02:21.781Z,63.87
2022-09-05T22:07:43.338Z,63.77
2022-09-05T22:13:05.107Z,63.21
2022-09-05T22:18:25.709Z,63.70
2022-09-05T22:23:53.658Z,63.29
2022-09-05T22:29:17.979Z,63.63
2022-09-05T22:34:38.862Z,63.72
2022-09-05T22:39:59.765Z,63.98
2022-09-05T22:45:20.541Z,63.93
2022-09-05T22:50:42.613Z,63.81
2022-09-05T22:56:07.098Z,64.18
2022-09-05T23:01:27.949Z,64.25
2022-09-05T23:06:48.664Z,64.34
2022-09-05T23:12:09.320Z,64.10
2022-09-05T23:17:29.925Z,64.43
2022-09-05T23:22:50.434Z,64.15
2022-09-05T23:28:11.467Z,64.32
2022-09-05T23:33:33.287Z,64.63
2022-09-05T23:38:54.474Z,64.67
2022-09-05T23:44:15.257Z,64.57
2022-09-05T23:49:35.748Z,64.70
2022-09-05T23:54:56.776Z,64.80
